sensor_id;sensor_type;location;lat;lon;timestamp;temperature;humidity
1005;DHT22;491;53.480;10.174;2023-03-01T09:15:50;7.40;99.90
1005;DHT22;491;53.480;10.174;2023-03-01T09:18:15;7.00;99.90
1005;DHT22;491;53.480;10.174;2023-03-01T09:23:07;7.80;99.90
1005;DHT22;491;53.480;10.174;2023-03-01T09:25:34;7.50;1.00
1005;DHT22;491;53.480;10.174;2023-03-01T09:27:59;7.40;1.00
1005;DHT22;491;53.480;10.174;2023-03-01T09:30:25;8.90;99.90
1005;DHT22;491;53.480;10.174;2023-03-01T09:32:50;10.10;99.90
1005;DHT22;491;53.480;10.174;2023-03-01T09:35:16;9.60;99.90
1005;DHT22;491;53.480;10.174;2023-03-01T09:37:41;8.80;99.90
1005;DHT22;491;53.480;10.174;2023-03-01T09:40:14;9.50;99.90
1005;DHT22;491;53.480;10.174;2023-03-01T09:42:53;9.00;99.90
1005;DHT22;491;53.480;10.174;2023-03-01T09:45:31;8.50;99.90
1005;DHT22;491;53.480;10.174;2023-03-01T09:47:58;8.10;99.90
1005;DHT22;491;53.480;10.174;2023-03-01T09:50:28;11.50;99.90
1005;DHT22;491;53.480;10.174;2023-03-01T09:53:02;11.30;99.90
1005;DHT22;491;53.480;10.174;2023-03-01T09:55:38;9.90;99.90
1005;DHT22;491;53.480;10.174;2023-03-01T10:00:50;10.50;99.90
1005;DHT22;491;53.480;10.174;2023-03-01T10:03:21;11.70;99.90
1005;DHT22;491;53.480;10.174;2023-03-01T10:08:50;10.40;99.90
1005;DHT22;491;53.480;10.174;2023-03-01T10:11:24;11.10;99.90
1005;DHT22;491;53.480;10.174;2023-03-01T10:14:23;11.30;99.90
1005;DHT22;491;53.480;10.174;2023-03-01T10:16:58;11.20;99.90
1005;DHT22;491;53.480;10.174;2023-03-01T10:19:36;10.10;99.90
1005;DHT22;491;53.480;10.174;2023-03-01T10:22:26;10.10;99.90
1005;DHT22;491;53.480;10.174;2023-03-01T10:24:54;9.80;99.90
1005;DHT22;491;53.480;10.174;2023-03-01T10:30:05;12.40;99.90
1005;DHT22;491;53.480;10.174;2023-03-01T10:32:39;12.80;99.90
1005;DHT22;491;53.480;10.174;2023-03-01T10:40:56;14.60;99.90
1005;DHT22;491;53.480;10.174;2023-03-01T10:43:51;14.70;99.90
1005;DHT22;491;53.480;10.174;2023-03-01T10:46:34;13.80;99.90
1005;DHT22;491;53.480;10.174;2023-03-01T10:49:16;13.90;99.90
1005;DHT22;491;53.480;10.174;2023-03-01T10:51:44;14.40;99.90
1005;DHT22;491;53.480;10.174;2023-03-01T10:54:39;13.30;99.90
1005;DHT22;491;53.480;10.174;2023-03-01T10:57:29;13.40;99.90
1005;DHT22;491;53.480;10.174;2023-03-01T11:00:26;13.10;99.90
1005;DHT22;491;53.480;10.174;2023-03-01T11:03:04;12.20;99.90
1005;DHT22;491;53.480;10.174;2023-03-01T11:05:35;12.40;99.90
1005;DHT22;491;53.480;10.174;2023-03-01T11:08:02;12.60;99.90
1005;DHT22;491;53.480;10.174;2023-03-01T11:10:34;12.80;99.90
1005;DHT22;491;53.480;10.174;2023-03-01T11:13:18;12.70;99.90
1005;DHT22;491;53.480;10.174;2023-03-01T11:16:03;13.00;99.90
1005;DHT22;491;53.480;10.174;2023-03-01T11:18:30;14.20;99.90
1005;DHT22;491;53.480;10.174;2023-03-01T11:20:57;13.80;99.90
1005;DHT22;491;53.480;10.174;2023-03-01T11:23:24;13.40;99.90
1005;DHT22;491;53.480;10.174;2023-03-01T11:26:02;13.70;99.90
1005;DHT22;491;53.480;10.174;2023-03-01T11:28:30;14.30;1.00
1005;DHT22;491;53.480;10.174;2023-03-01T11:31:03;14.50;1.00
1005;DHT22;491;53.480;10.174;2023-03-01T11:34:09;15.10;99.90
1005;DHT22;491;53.480;10.174;2023-03-01T11:36:54;14.80;1.00
1005;DHT22;491;53.480;10.174;2023-03-01T11:39:25;14.60;99.90
1005;DHT22;491;53.480;10.174;2023-03-01T11:42:02;14.40;99.90
1005;DHT22;491;53.480;10.174;2023-03-01T11:44:33;15.10;99.90
1005;DHT22;491;53.480;10.174;2023-03-01T11:50:38;15.60;99.90
1005;DHT22;491;53.480;10.174;2023-03-01T12:01:45;17.40;99.90
1005;DHT22;491;53.480;10.174;2023-03-01T12:18:42;17.70;99.90
1005;DHT22;491;53.480;10.174;2023-03-01T12:21:18;17.50;99.90
1005;DHT22;491;53.480;10.174;2023-03-01T12:26:33;16.80;99.90
1005;DHT22;491;53.480;10.174;2023-03-01T12:29:23;17.20;99.90
1005;DHT22;491;53.480;10.174;2023-03-01T12:34:55;18.20;99.90
1005;DHT22;491;53.480;10.174;2023-03-01T12:41:28;17.60;99.90
1005;DHT22;491;53.480;10.174;2023-03-01T12:49:15;16.80;99.90
1005;DHT22;491;53.480;10.174;2023-03-01T12:54:16;17.30;99.90
1005;DHT22;491;53.480;10.174;2023-03-01T12:56:45;17.30;99.90
1005;DHT22;491;53.480;10.174;2023-03-01T13:08:05;17.20;99.90
1005;DHT22;491;53.480;10.174;2023-03-01T13:13:12;16.50;93.10
1005;DHT22;491;53.480;10.174;2023-03-01T13:15:38;14.90;99.90
1005;DHT22;491;53.480;10.174;2023-03-01T13:20:47;14.00;84.90
1005;DHT22;491;53.480;10.174;2023-03-01T13:30:57;12.10;99.90
1005;DHT22;491;53.480;10.174;2023-03-01T13:35:48;12.40;99.90
1005;DHT22;491;53.480;10.174;2023-03-01T13:44:26;11.90;99.90
1005;DHT22;491;53.480;10.174;2023-03-01T13:49:59;12.60;99.90
1005;DHT22;491;53.480;10.174;2023-03-01T13:52:40;11.90;99.90
1005;DHT22;491;53.480;10.174;2023-03-01T13:57:39;12.00;99.90
1005;DHT22;491;53.480;10.174;2023-03-01T14:03:03;11.00;99.90
1005;DHT22;491;53.480;10.174;2023-03-01T14:05:30;11.20;99.90
1005;DHT22;491;53.480;10.174;2023-03-01T14:07:56;11.40;99.90
1005;DHT22;491;53.480;10.174;2023-03-01T14:10:21;11.40;99.90
1005;DHT22;491;53.480;10.174;2023-03-01T14:13:10;11.90;99.90
1005;DHT22;491;53.480;10.174;2023-03-01T14:15:48;11.10;99.90
1005;DHT22;491;53.480;10.174;2023-03-01T14:20:47;10.80;99.90
1005;DHT22;491;53.480;10.174;2023-03-01T14:23:20;10.90;99.90
1005;DHT22;491;53.480;10.174;2023-03-01T14:25:49;11.30;99.90
1005;DHT22;491;53.480;10.174;2023-03-01T14:28:24;10.90;99.90
1005;DHT22;491;53.480;10.174;2023-03-01T14:30:54;10.70;99.90
1005;DHT22;491;53.480;10.174;2023-03-01T14:33:29;10.30;99.90
1005;DHT22;491;53.480;10.174;2023-03-01T14:36:13;10.80;99.90
1005;DHT22;491;53.480;10.174;2023-03-01T14:38:44;10.50;99.90
1005;DHT22;491;53.480;10.174;2023-03-01T14:41:17;10.50;99.90
1005;DHT22;491;53.480;10.174;2023-03-01T14:43:46;10.50;99.90
1005;DHT22;491;53.480;10.174;2023-03-01T14:46:41;10.30;99.90
1005;DHT22;491;53.480;10.174;2023-03-01T14:49:15;10.30;99.90
1005;DHT22;491;53.480;10.174;2023-03-01T14:51:48;10.20;99.90
1005;DHT22;491;53.480;10.174;2023-03-01T14:54:28;10.50;99.90
1005;DHT22;491;53.480;10.174;2023-03-01T14:56:59;10.40;99.90
1005;DHT22;491;53.480;10.174;2023-03-01T14:59:25;10.10;99.90
1005;DHT22;491;53.480;10.174;2023-03-01T15:01:54;10.20;99.90
1005;DHT22;491;53.480;10.174;2023-03-01T15:04:22;10.40;99.90
1005;DHT22;491;53.480;10.174;2023-03-01T15:06:51;9.90;99.90
1005;DHT22;491;53.480;10.174;2023-03-01T15:09:17;9.80;99.90
1005;DHT22;491;53.480;10.174;2023-03-01T15:11:43;9.50;99.90
1005;DHT22;491;53.480;10.174;2023-03-01T15:14:41;9.60;99.90
1005;DHT22;491;53.480;10.174;2023-03-01T15:17:32;9.40;99.90
1005;DHT22;491;53.480;10.174;2023-03-01T15:19:58;9.40;99.90
1005;DHT22;491;53.480;10.174;2023-03-01T15:22:28;9.40;99.90
1005;DHT22;491;53.480;10.174;2023-03-01T15:24:54;9.50;99.90
1005;DHT22;491;53.480;10.174;2023-03-01T15:27:22;9.50;99.90
1005;DHT22;491;53.480;10.174;2023-03-01T15:29:50;9.80;99.90
1005;DHT22;491;53.480;10.174;2023-03-01T15:32:32;9.60;99.90
1005;DHT22;491;53.480;10.174;2023-03-01T15:35:00;9.30;99.90
1005;DHT22;491;53.480;10.174;2023-03-01T15:37:43;9.00;99.90
1005;DHT22;491;53.480;10.174;2023-03-01T15:40:27;9.00;99.90
1005;DHT22;491;53.480;10.174;2023-03-01T15:43:39;10.30;99.90
1005;DHT22;491;53.480;10.174;2023-03-01T15:46:05;9.00;99.90
1005;DHT22;491;53.480;10.174;2023-03-01T15:48:45;8.90;99.90
1005;DHT22;491;53.480;10.174;2023-03-01T15:51:12;9.00;99.90
1005;DHT22;491;53.480;10.174;2023-03-01T15:53:39;8.70;99.90
1005;DHT22;491;53.480;10.174;2023-03-01T15:56:05;8.80;99.90
1005;DHT22;491;53.480;10.174;2023-03-01T15:58:33;8.70;99.90
1005;DHT22;491;53.480;10.174;2023-03-01T16:00:58;8.70;99.90
1005;DHT22;491;53.480;10.174;2023-03-01T16:03:24;8.60;99.90
1005;DHT22;491;53.480;10.174;2023-03-01T16:05:51;8.60;99.90
1005;DHT22;491;53.480;10.174;2023-03-01T16:08:18;8.60;99.90
1005;DHT22;491;53.480;10.174;2023-03-01T16:10:44;8.40;99.90
1005;DHT22;491;53.480;10.174;2023-03-01T16:13:12;8.50;99.90
1005;DHT22;491;53.480;10.174;2023-03-01T16:15:37;8.30;99.90
1005;DHT22;491;53.480;10.174;2023-03-01T16:18:04;8.30;99.90
1005;DHT22;491;53.480;10.174;2023-03-01T16:20:35;8.30;99.90
1005;DHT22;491;53.480;10.174;2023-03-01T16:23:02;8.20;99.90
1005;DHT22;491;53.480;10.174;2023-03-01T16:25:29;8.00;99.90
1005;DHT22;491;53.480;10.174;2023-03-01T16:27:55;8.00;99.90
1005;DHT22;491;53.480;10.174;2023-03-01T16:30:22;8.00;99.90
1005;DHT22;491;53.480;10.174;2023-03-01T16:32:48;7.80;99.90
1005;DHT22;491;53.480;10.174;2023-03-01T16:35:19;7.70;99.90
1005;DHT22;491;53.480;10.174;2023-03-01T16:37:46;7.50;99.90
1005;DHT22;491;53.480;10.174;2023-03-01T16:40:22;7.50;99.90
1005;DHT22;491;53.480;10.174;2023-03-01T16:42:49;7.40;99.90
1005;DHT22;491;53.480;10.174;2023-03-01T16:45:16;7.40;99.90
1005;DHT22;491;53.480;10.174;2023-03-01T16:47:41;7.30;99.90
1005;DHT22;491;53.480;10.174;2023-03-01T16:50:08;7.20;99.90
1005;DHT22;491;53.480;10.174;2023-03-01T16:52:34;7.10;99.90
1005;DHT22;491;53.480;10.174;2023-03-01T16:54:59;7.10;1.00
1005;DHT22;491;53.480;10.174;2023-03-01T16:57:25;7.10;1.00
1005;DHT22;491;53.480;10.174;2023-03-01T16:59:54;7.00;1.00
1005;DHT22;491;53.480;10.174;2023-03-01T17:02:19;6.90;1.00
1005;DHT22;491;53.480;10.174;2023-03-01T17:04:50;6.80;99.90
1005;DHT22;491;53.480;10.174;2023-03-01T17:07:16;6.80;68.40
1005;DHT22;491;53.480;10.174;2023-03-01T17:09:41;6.60;99.90
1005;DHT22;491;53.480;10.174;2023-03-01T17:12:07;6.60;99.90
1005;DHT22;491;53.480;10.174;2023-03-01T17:14:32;6.60;1.00
1005;DHT22;491;53.480;10.174;2023-03-01T17:16:58;6.50;1.00
1005;DHT22;491;53.480;10.174;2023-03-01T17:19:23;6.50;99.90
1005;DHT22;491;53.480;10.174;2023-03-01T17:21:49;6.40;98.60
1005;DHT22;491;53.480;10.174;2023-03-01T17:24:14;6.20;1.00
1005;DHT22;491;53.480;10.174;2023-03-01T17:26:40;6.10;99.90
1005;DHT22;491;53.480;10.174;2023-03-01T17:29:06;6.00;99.90
1005;DHT22;491;53.480;10.174;2023-03-01T17:31:32;5.90;99.90
1005;DHT22;491;53.480;10.174;2023-03-01T17:33:58;5.80;1.00
1005;DHT22;491;53.480;10.174;2023-03-01T17:36:23;5.70;1.00
1005;DHT22;491;53.480;10.174;2023-03-01T17:38:50;5.50;1.00
1005;DHT22;491;53.480;10.174;2023-03-01T17:41:16;5.50;99.90
1005;DHT22;491;53.480;10.174;2023-03-01T17:43:44;5.40;99.90
1005;DHT22;491;53.480;10.174;2023-03-01T17:46:10;5.30;1.00
1005;DHT22;491;53.480;10.174;2023-03-01T17:48:36;5.30;1.00
1005;DHT22;491;53.480;10.174;2023-03-01T17:51:20;5.20;1.00
1005;DHT22;491;53.480;10.174;2023-03-01T17:53:48;5.10;1.00
1005;DHT22;491;53.480;10.174;2023-03-01T17:56:14;5.10;1.00
1005;DHT22;491;53.480;10.174;2023-03-01T17:58:40;5.00;1.00
1005;DHT22;491;53.480;10.174;2023-03-01T18:01:10;4.90;1.00
1005;DHT22;491;53.480;10.174;2023-03-01T18:03:38;4.90;1.00
1005;DHT22;491;53.480;10.174;2023-03-01T18:06:27;4.80;1.00
1005;DHT22;491;53.480;10.174;2023-03-01T18:08:53;4.70;1.00
1005;DHT22;491;53.480;10.174;2023-03-01T18:11:20;4.70;1.00
1005;DHT22;491;53.480;10.174;2023-03-01T18:13:46;4.60;15.20
1005;DHT22;491;53.480;10.174;2023-03-01T18:16:14;4.70;22.90
1005;DHT22;491;53.480;10.174;2023-03-01T18:18:40;4.50;95.70
1005;DHT22;491;53.480;10.174;2023-03-01T18:21:06;4.50;99.90
1005;DHT22;491;53.480;10.174;2023-03-01T18:23:33;3.90;99.90
1005;DHT22;491;53.480;10.174;2023-03-01T18:26:05;4.00;99.90
1005;DHT22;491;53.480;10.174;2023-03-01T18:28:32;4.30;99.90
1005;DHT22;491;53.480;10.174;2023-03-01T18:30:59;4.20;99.90
1005;DHT22;491;53.480;10.174;2023-03-01T18:33:29;4.20;99.90
1005;DHT22;491;53.480;10.174;2023-03-01T18:36:16;4.10;99.90
1005;DHT22;491;53.480;10.174;2023-03-01T18:38:42;4.10;99.90
1005;DHT22;491;53.480;10.174;2023-03-01T18:41:08;3.90;99.90
1005;DHT22;491;53.480;10.174;2023-03-01T18:43:33;3.90;99.90
1005;DHT22;491;53.480;10.174;2023-03-01T18:45:59;3.80;99.90
1005;DHT22;491;53.480;10.174;2023-03-01T18:48:25;3.70;99.90
1005;DHT22;491;53.480;10.174;2023-03-01T18:50:50;3.70;99.90
1005;DHT22;491;53.480;10.174;2023-03-01T18:53:16;3.70;99.90
1005;DHT22;491;53.480;10.174;2023-03-01T18:55:41;3.60;99.90
1005;DHT22;491;53.480;10.174;2023-03-01T18:58:07;3.50;99.90
1005;DHT22;491;53.480;10.174;2023-03-01T19:00:33;3.40;99.90
1005;DHT22;491;53.480;10.174;2023-03-01T19:02:59;3.40;99.90
1005;DHT22;491;53.480;10.174;2023-03-01T19:05:29;3.40;99.90
1005;DHT22;491;53.480;10.174;2023-03-01T19:07:54;3.40;99.90
1005;DHT22;491;53.480;10.174;2023-03-01T19:10:20;3.30;99.90
1005;DHT22;491;53.480;10.174;2023-03-01T19:12:45;3.30;99.90
1005;DHT22;491;53.480;10.174;2023-03-01T19:15:11;3.20;99.90
1005;DHT22;491;53.480;10.174;2023-03-01T19:17:37;3.20;99.90
1005;DHT22;491;53.480;10.174;2023-03-01T19:20:03;3.10;99.90
1005;DHT22;491;53.480;10.174;2023-03-01T19:22:32;3.10;99.90
1005;DHT22;491;53.480;10.174;2023-03-01T19:24:58;3.10;99.90
1005;DHT22;491;53.480;10.174;2023-03-01T19:27:23;3.20;99.90
1005;DHT22;491;53.480;10.174;2023-03-01T19:29:49;3.20;99.90
1005;DHT22;491;53.480;10.174;2023-03-01T19:32:14;3.10;99.90
1005;DHT22;491;53.480;10.174;2023-03-01T20:38:22;3.30;99.90
1005;DHT22;491;53.480;10.174;2023-03-01T20:40:48;3.20;99.90
1005;DHT22;491;53.480;10.174;2023-03-01T20:43:16;3.10;99.90
1005;DHT22;491;53.480;10.174;2023-03-01T20:45:41;3.10;99.90
1005;DHT22;491;53.480;10.174;2023-03-01T20:48:07;3.00;99.90
1005;DHT22;491;53.480;10.174;2023-03-01T20:50:32;2.90;99.90
1005;DHT22;491;53.480;10.174;2023-03-01T20:52:58;3.10;99.90
1005;DHT22;491;53.480;10.174;2023-03-01T20:55:23;3.10;99.90
1005;DHT22;491;53.480;10.174;2023-03-01T20:57:52;3.10;99.90
1005;DHT22;491;53.480;10.174;2023-03-01T21:00:17;3.80;99.90
1005;DHT22;491;53.480;10.174;2023-03-01T21:02:43;2.80;99.90
1005;DHT22;491;53.480;10.174;2023-03-01T21:05:09;2.70;99.90
1005;DHT22;491;53.480;10.174;2023-03-01T21:07:34;2.50;99.90
1005;DHT22;491;53.480;10.174;2023-03-01T21:10:00;2.50;99.90
1005;DHT22;491;53.480;10.174;2023-03-01T21:12:25;2.40;99.90
1005;DHT22;491;53.480;10.174;2023-03-01T21:14:53;2.40;99.90
1005;DHT22;491;53.480;10.174;2023-03-01T21:17:18;2.80;99.90
1005;DHT22;491;53.480;10.174;2023-03-01T21:19:44;2.40;99.90
1005;DHT22;491;53.480;10.174;2023-03-01T21:22:11;2.50;99.90
1005;DHT22;491;53.480;10.174;2023-03-01T21:24:37;2.50;99.90
1005;DHT22;491;53.480;10.174;2023-03-01T21:27:03;2.60;99.90
1005;DHT22;491;53.480;10.174;2023-03-01T21:29:36;2.60;99.90
1005;DHT22;491;53.480;10.174;2023-03-01T21:32:02;2.60;99.90
1005;DHT22;491;53.480;10.174;2023-03-01T21:34:28;2.60;99.90
1005;DHT22;491;53.480;10.174;2023-03-01T21:36:54;2.50;99.90
1005;DHT22;491;53.480;10.174;2023-03-01T21:39:19;2.50;99.90
1005;DHT22;491;53.480;10.174;2023-03-01T21:41:49;2.60;99.90
1005;DHT22;491;53.480;10.174;2023-03-01T21:44:14;2.70;99.90
1005;DHT22;491;53.480;10.174;2023-03-01T21:46:40;2.50;99.90
1005;DHT22;491;53.480;10.174;2023-03-01T21:49:07;2.70;99.90
1005;DHT22;491;53.480;10.174;2023-03-01T21:51:36;2.30;99.90
1005;DHT22;491;53.480;10.174;2023-03-01T21:54:02;2.40;99.90
1005;DHT22;491;53.480;10.174;2023-03-01T21:56:30;2.40;99.90
1005;DHT22;491;53.480;10.174;2023-03-01T21:58:56;2.30;99.90
1005;DHT22;491;53.480;10.174;2023-03-01T22:01:24;2.30;99.90
1005;DHT22;491;53.480;10.174;2023-03-01T22:03:51;2.30;99.90
1005;DHT22;491;53.480;10.174;2023-03-01T22:06:23;2.20;99.90
1005;DHT22;491;53.480;10.174;2023-03-01T22:09:37;2.30;99.90
1005;DHT22;491;53.480;10.174;2023-03-01T22:11:48;2.30;99.90
1005;DHT22;491;53.480;10.174;2023-03-01T22:14:18;2.10;99.90
1005;DHT22;491;53.480;10.174;2023-03-01T22:16:44;2.70;99.90
1005;DHT22;491;53.480;10.174;2023-03-01T22:19:18;2.30;99.90
1005;DHT22;491;53.480;10.174;2023-03-01T22:21:46;2.20;99.90
1005;DHT22;491;53.480;10.174;2023-03-01T22:24:22;2.40;99.90
1005;DHT22;491;53.480;10.174;2023-03-01T22:26:49;2.20;99.90
1005;DHT22;491;53.480;10.174;2023-03-01T22:29:18;2.30;99.90
1005;DHT22;491;53.480;10.174;2023-03-01T22:31:44;2.20;99.90
1005;DHT22;491;53.480;10.174;2023-03-01T22:34:10;2.40;99.90
1005;DHT22;491;53.480;10.174;2023-03-01T22:36:39;2.30;99.90
1005;DHT22;491;53.480;10.174;2023-03-01T22:39:05;2.90;99.90
1005;DHT22;491;53.480;10.174;2023-03-01T22:41:43;2.50;99.90
1005;DHT22;491;53.480;10.174;2023-03-01T22:44:11;2.60;99.90
1005;DHT22;491;53.480;10.174;2023-03-01T22:46:36;2.60;99.90
1005;DHT22;491;53.480;10.174;2023-03-01T22:49:02;2.70;99.90
1005;DHT22;491;53.480;10.174;2023-03-01T22:51:31;2.60;99.90
1005;DHT22;491;53.480;10.174;2023-03-01T22:53:58;2.50;99.90
1005;DHT22;491;53.480;10.174;2023-03-01T22:56:26;2.50;99.90
1005;DHT22;491;53.480;10.174;2023-03-01T22:58:53;2.50;99.90
1005;DHT22;491;53.480;10.174;2023-03-01T23:01:21;2.10;99.90
1005;DHT22;491;53.480;10.174;2023-03-01T23:03:47;2.70;99.90
1005;DHT22;491;53.480;10.174;2023-03-01T23:06:14;2.20;99.90
1005;DHT22;491;53.480;10.174;2023-03-01T23:08:40;2.40;99.90
1005;DHT22;491;53.480;10.174;2023-03-01T23:11:14;2.40;99.90
1005;DHT22;491;53.480;10.174;2023-03-01T23:13:41;2.30;99.90
1005;DHT22;491;53.480;10.174;2023-03-01T23:16:27;2.10;99.90
1005;DHT22;491;53.480;10.174;2023-03-01T23:18:56;2.00;99.90
1005;DHT22;491;53.480;10.174;2023-03-01T23:21:23;2.00;99.90
1005;DHT22;491;53.480;10.174;2023-03-01T23:23:48;1.90;99.90
1005;DHT22;491;53.480;10.174;2023-03-01T23:26:14;1.90;99.90
1005;DHT22;491;53.480;10.174;2023-03-01T23:28:40;2.00;99.90
1005;DHT22;491;53.480;10.174;2023-03-01T23:31:09;2.00;99.90
1005;DHT22;491;53.480;10.174;2023-03-01T23:33:34;1.80;99.90
1005;DHT22;491;53.480;10.174;2023-03-01T23:36:13;1.90;99.90
1005;DHT22;491;53.480;10.174;2023-03-01T23:38:39;2.00;99.90
1005;DHT22;491;53.480;10.174;2023-03-01T23:41:11;1.90;99.90
1005;DHT22;491;53.480;10.174;2023-03-01T23:43:37;2.00;99.90
1005;DHT22;491;53.480;10.174;2023-03-01T23:46:03;2.10;99.90
1005;DHT22;491;53.480;10.174;2023-03-01T23:48:28;2.10;99.90
1005;DHT22;491;53.480;10.174;2023-03-01T23:50:54;2.00;99.90
1005;DHT22;491;53.480;10.174;2023-03-01T23:53:19;2.20;99.90
1005;DHT22;491;53.480;10.174;2023-03-01T23:55:52;2.10;99.90
1005;DHT22;491;53.480;10.174;2023-03-01T23:58:18;2.00;99.90
